createdAt,value
2022-12-14T00:01:48.722Z,-4.05
2022-12-14T00:04:18.425Z,-4.13
2022-12-14T00:06:47.412Z,-4.19
2022-12-14T00:09:17.096Z,-4.21
2022-12-14T00:11:45.857Z,-4.08
2022-12-14T00:14:14.807Z,-4.12
2022-12-14T00:16:43.273Z,-4.15
2022-12-14T00:19:13.707Z,-4.21
2022-12-14T00:21:42.132Z,-4.25
2022-12-14T00:24:12.867Z,-4.14
2022-12-14T00:26:41.266Z,-4.14
2022-12-14T00:29:10.160Z,-4.11
2022-12-14T00:31:38.586Z,-4.17
2022-12-14T00:34:07.682Z,-4.26
2022-12-14T00:36:37.943Z,-4.28
2022-12-14T00:39:06.794Z,-4.35
2022-12-14T00:41:35.156Z,-4.27
2022-12-14T00:44:04.373Z,-4.16
2022-12-14T00:46:32.856Z,-4.11
2022-12-14T00:49:01.719Z,-4.14
2022-12-14T00:51:30.412Z,-4.08
2022-12-14T00:54:00.750Z,-4.03
2022-12-14T00:56:29.158Z,-3.92
2022-12-14T00:58:58.055Z,-3.92
2022-12-14T01:01:30.489Z,-3.95
2022-12-14T01:04:17.342Z,-3.90
2022-12-14T01:06:47.183Z,-3.94
2022-12-14T01:09:17.803Z,-4.02
2022-12-14T01:11:46.313Z,-4.04
2022-12-14T01:14:18.800Z,-3.97
2022-12-14T01:16:47.239Z,-3.94
2022-12-14T01:19:17.030Z,-4.01
2022-12-14T01:21:45.389Z,-4.08
2022-12-14T01:24:14.209Z,-4.04
2022-12-14T01:26:43.994Z,-4.03
2022-12-14T01:29:13.234Z,-3.86
2022-12-14T01:31:41.664Z,-3.86
2022-12-14T01:34:11.086Z,-3.79
2022-12-14T01:36:40.039Z,-3.84
2022-12-14T01:39:13.894Z,-3.82
2022-12-14T01:41:45.867Z,-3.79
2022-12-14T01:44:52.404Z,-3.68
2022-12-14T01:47:26.298Z,-3.65
2022-12-14T01:50:01.546Z,-3.58
2022-12-14T01:52:36.539Z,-3.75
2022-12-14T01:55:09.387Z,-3.83
2022-12-14T01:57:43.058Z,-4.03
2022-12-14T02:00:14.347Z,-4.17
2022-12-14T02:02:47.445Z,-4.16
2022-12-14T02:05:17.946Z,-4.12
2022-12-14T02:07:49.197Z,-4.15
2022-12-14T02:10:19.206Z,-4.05
2022-12-14T02:12:56.544Z,-4.11
2022-12-14T02:15:26.607Z,-4.17
2022-12-14T02:17:55.130Z,-4.13
2022-12-14T02:20:24.627Z,-4.18
2022-12-14T02:23:29.645Z,-4.11
2022-12-14T02:26:25.753Z,-4.05
2022-12-14T02:29:30.096Z,-4.11
2022-12-14T02:32:06.775Z,-4.13
2022-12-14T02:34:49.131Z,-4.13
2022-12-14T02:37:24.099Z,-4.09
2022-12-14T02:40:01.994Z,-4.08
2022-12-14T02:42:42.671Z,-4.09
2022-12-14T02:45:18.745Z,-4.03
2022-12-14T02:47:55.300Z,-3.98
2022-12-14T02:50:28.952Z,-3.90
2022-12-14T02:53:05.391Z,-3.93
2022-12-14T02:55:39.107Z,-3.74
2022-12-14T02:58:13.162Z,-3.63
2022-12-14T03:00:44.374Z,-3.57
2022-12-14T03:03:13.101Z,-3.63
2022-12-14T03:05:42.006Z,-3.72
2022-12-14T03:08:14.360Z,-3.77
2022-12-14T03:10:49.779Z,-3.78
2022-12-14T03:13:23.386Z,-3.81
2022-12-14T03:15:59.501Z,-3.88
2022-12-14T03:18:35.430Z,-3.83
2022-12-14T03:21:08.885Z,-3.86
2022-12-14T03:23:41.155Z,-3.92
2022-12-14T03:26:15.240Z,-3.99
2022-12-14T03:28:48.597Z,-3.96
2022-12-14T03:31:23.286Z,-3.88
2022-12-14T03:33:54.940Z,-3.83
2022-12-14T03:36:28.428Z,-3.81
2022-12-14T03:39:02.008Z,-3.76
2022-12-14T03:41:39.027Z,-3.72
2022-12-14T03:44:17.556Z,-3.70
2022-12-14T03:46:57.493Z,-3.69
2022-12-14T03:49:39.413Z,-3.65
2022-12-14T03:52:13.392Z,-3.63
2022-12-14T03:54:51.047Z,-3.61
2022-12-14T03:57:31.011Z,-3.62
2022-12-14T04:00:04.074Z,-3.70
2022-12-14T04:02:51.896Z,-3.61
2022-12-14T04:05:26.565Z,-3.70
2022-12-14T04:08:05.116Z,-3.71
2022-12-14T04:10:58.968Z,-3.68
2022-12-14T04:13:52.577Z,-3.60
2022-12-14T04:16:44.278Z,-3.59
2022-12-14T04:19:19.427Z,-3.50
2022-12-14T04:21:53.007Z,-3.53
2022-12-14T04:24:46.370Z,-3.52
2022-12-14T04:27:20.900Z,-3.45
2022-12-14T04:29:59.132Z,-3.44
2022-12-14T04:32:33.133Z,-3.40
2022-12-14T04:35:08.999Z,-3.42
2022-12-14T04:37:40.423Z,-3.38
2022-12-14T04:40:12.275Z,-3.39
2022-12-14T04:42:48.252Z,-3.26
2022-12-14T04:45:22.906Z,-3.22
2022-12-14T04:47:59.095Z,-3.21
2022-12-14T04:50:32.132Z,-3.14
2022-12-14T04:53:06.386Z,-3.10
2022-12-14T04:55:40.214Z,-3.08
2022-12-14T04:58:14.599Z,-3.00
2022-12-14T05:00:56.759Z,-3.03
2022-12-14T05:03:30.861Z,-3.08
2022-12-14T05:06:10.018Z,-3.09
2022-12-14T05:09:03.075Z,-3.07
2022-12-14T05:11:54.717Z,-3.05
2022-12-14T05:14:32.249Z,-3.14
2022-12-14T05:17:08.426Z,-3.17
2022-12-14T05:19:38.359Z,-3.10
2022-12-14T05:22:10.200Z,-3.00
2022-12-14T05:24:38.622Z,-2.98
2022-12-14T05:27:07.499Z,-3.02
2022-12-14T05:29:35.923Z,-3.00
2022-12-14T05:32:05.174Z,-2.99
2022-12-14T05:34:34.643Z,-2.96
2022-12-14T05:37:03.002Z,-2.89
2022-12-14T05:39:33.017Z,-2.87
2022-12-14T05:42:01.895Z,-2.84
2022-12-14T05:44:30.589Z,-2.95
2022-12-14T05:46:59.455Z,-2.96
2022-12-14T05:49:27.761Z,-3.00
2022-12-14T05:51:56.163Z,-3.15
2022-12-14T05:54:24.590Z,-3.21
2022-12-14T05:56:55.327Z,-3.25
2022-12-14T05:59:24.255Z,-3.19
2022-12-14T06:01:53.281Z,-3.22
2022-12-14T06:04:22.469Z,-3.26
2022-12-14T06:06:50.932Z,-3.37
2022-12-14T06:09:20.765Z,-3.38
2022-12-14T06:11:50.474Z,-3.38
2022-12-14T06:14:21.049Z,-3.35
2022-12-14T06:16:49.402Z,-3.30
2022-12-14T06:19:18.411Z,-3.29
2022-12-14T06:21:47.133Z,-3.42
2022-12-14T06:24:15.647Z,-3.26
2022-12-14T06:26:44.993Z,-3.19
2022-12-14T06:29:16.843Z,-3.31
2022-12-14T06:31:49.027Z,-3.23
2022-12-14T06:34:18.134Z,-3.14
2022-12-14T06:36:48.239Z,-3.05
2022-12-14T06:39:17.979Z,-3.01
2022-12-14T06:41:51.014Z,-3.10
2022-12-14T06:44:20.100Z,-3.10
2022-12-14T06:46:50.114Z,-3.16
2022-12-14T06:49:19.066Z,-3.11
2022-12-14T06:51:47.717Z,-3.07
2022-12-14T06:54:17.533Z,-3.10
2022-12-14T06:56:48.319Z,-3.06
2022-12-14T06:59:17.426Z,-3.10
2022-12-14T07:01:50.037Z,-3.12
2022-12-14T07:04:21.413Z,-3.12
2022-12-14T07:06:50.912Z,-3.07
2022-12-14T07:09:19.585Z,-3.05
2022-12-14T07:11:50.947Z,-3.05
2022-12-14T07:14:19.374Z,-3.09
2022-12-14T07:16:49.311Z,-2.93
2022-12-14T07:19:20.327Z,-2.74
2022-12-14T07:21:48.737Z,-2.81
2022-12-14T07:24:17.850Z,-2.90
2022-12-14T07:26:46.743Z,-2.83
2022-12-14T07:29:16.856Z,-2.85
2022-12-14T07:31:49.413Z,-2.76
2022-12-14T07:34:20.675Z,-2.67
2022-12-14T07:36:51.457Z,-2.64
2022-12-14T07:39:20.487Z,-2.73
2022-12-14T07:41:50.536Z,-2.72
2022-12-14T07:44:23.544Z,-2.78
2022-12-14T07:46:52.112Z,-2.75
2022-12-14T07:49:22.518Z,-2.79
2022-12-14T07:51:52.936Z,-2.72
2022-12-14T07:54:22.046Z,-2.61
2022-12-14T07:56:50.904Z,-2.77
2022-12-14T07:59:19.838Z,-2.46
2022-12-14T08:01:48.357Z,-2.56
2022-12-14T08:04:20.368Z,-2.34
2022-12-14T08:06:50.617Z,-2.37
2022-12-14T08:09:20.269Z,-2.42
2022-12-14T08:11:48.904Z,-2.39
2022-12-14T08:14:19.208Z,-2.32
2022-12-14T08:16:50.522Z,-2.38
2022-12-14T08:19:20.024Z,-2.43
2022-12-14T08:21:50.166Z,-2.51
2022-12-14T08:24:18.520Z,-2.46
2022-12-14T08:26:49.441Z,-2.43
2022-12-14T08:29:19.087Z,-2.36
2022-12-14T08:31:48.048Z,-2.25
2022-12-14T08:34:21.915Z,-2.19
2022-12-14T08:36:52.211Z,-2.09
2022-12-14T08:39:21.176Z,-2.22
2022-12-14T08:41:49.951Z,-2.13
2022-12-14T08:44:18.670Z,-2.19
2022-12-14T08:46:47.641Z,-2.16
2022-12-14T08:49:16.314Z,-2.29
2022-12-14T08:51:45.088Z,-2.30
2022-12-14T08:54:15.067Z,-2.28
2022-12-14T08:56:44.824Z,-2.26
2022-12-14T08:59:30.265Z,-2.22
2022-12-14T09:02:02.484Z,-2.09
2022-12-14T09:04:30.911Z,-2.11
2022-12-14T09:06:59.318Z,-2.06
2022-12-14T09:09:29.971Z,-2.15
2022-12-14T09:12:03.258Z,-2.02
2022-12-14T09:14:32.232Z,-2.04
2022-12-14T09:17:01.102Z,-1.96
2022-12-14T09:19:30.786Z,-1.91
2022-12-14T09:21:59.432Z,-2.02
2022-12-14T09:24:29.457Z,-1.95
2022-12-14T09:27:01.489Z,-1.95
2022-12-14T09:29:31.345Z,-1.89
2022-12-14T09:31:59.796Z,-1.93
2022-12-14T09:34:29.891Z,-1.97
2022-12-14T09:36:59.030Z,-1.92
2022-12-14T09:39:29.710Z,-1.92
2022-12-14T09:42:10.094Z,-1.93
2022-12-14T09:44:47.827Z,-1.93
2022-12-14T09:47:20.214Z,-1.95
2022-12-14T09:49:52.637Z,-1.96
2022-12-14T09:52:24.859Z,-1.85
2022-12-14T09:54:56.327Z,-1.93
2022-12-14T09:57:30.044Z,-2.01
2022-12-14T09:59:58.743Z,-1.84
2022-12-14T10:02:38.483Z,-1.79
2022-12-14T10:05:24.815Z,-1.72
2022-12-14T10:08:02.852Z,-1.83
2022-12-14T10:10:40.201Z,-1.82
2022-12-14T10:13:21.141Z,-1.74
2022-12-14T10:15:59.451Z,-1.65
2022-12-14T10:18:59.505Z,-1.63
2022-12-14T10:21:39.403Z,-1.74
2022-12-14T10:24:14.701Z,-1.82
2022-12-14T10:26:48.091Z,-1.95
2022-12-14T10:29:23.206Z,-1.87
2022-12-14T10:32:00.666Z,-1.87
2022-12-14T10:34:31.294Z,-1.85
2022-12-14T10:37:13.626Z,-1.82
2022-12-14T10:39:54.925Z,-1.77
2022-12-14T10:42:32.544Z,-1.73
2022-12-14T10:48:23.696Z,-1.38
2022-12-14T10:50:58.217Z,-1.32
2022-12-14T10:53:35.808Z,-1.37
2022-12-14T10:56:15.451Z,-1.31
2022-12-14T10:58:46.256Z,-1.16
2022-12-14T11:01:16.044Z,-1.13
2022-12-14T11:03:49.711Z,-1.11
2022-12-14T11:06:21.116Z,-1.13
2022-12-14T11:08:51.139Z,-1.07
2022-12-14T11:11:22.929Z,-1.03
2022-12-14T11:13:55.280Z,-0.97
2022-12-14T11:16:36.745Z,-0.91
2022-12-14T11:19:06.927Z,-0.90
2022-12-14T11:21:38.515Z,-0.95
2022-12-14T11:24:08.907Z,-0.94
2022-12-14T11:26:41.684Z,-0.92
2022-12-14T11:29:22.158Z,-0.89
2022-12-14T11:31:52.754Z,-0.93
2022-12-14T11:34:27.052Z,-0.77
2022-12-14T11:36:55.508Z,-0.81
2022-12-14T11:39:26.042Z,-0.86
2022-12-14T11:42:02.769Z,-0.80
2022-12-14T11:44:36.460Z,-0.74
2022-12-14T11:47:08.665Z,-0.65
2022-12-14T11:49:45.097Z,-0.56
2022-12-14T11:52:17.623Z,-0.53
2022-12-14T11:54:50.149Z,-0.51
2022-12-14T11:57:26.092Z,-0.48
2022-12-14T11:59:59.392Z,-0.50
2022-12-14T12:02:31.253Z,-0.53
2022-12-14T12:05:08.866Z,-0.35
2022-12-14T12:07:40.500Z,-0.34
2022-12-14T12:10:19.853Z,-0.42
2022-12-14T12:12:54.214Z,-0.45
2022-12-14T12:15:36.538Z,-0.35
2022-12-14T12:18:09.959Z,-0.33
2022-12-14T12:20:42.535Z,-0.35
2022-12-14T12:23:15.558Z,-0.29
2022-12-14T12:25:46.997Z,-0.23
2022-12-14T12:28:20.679Z,-0.26
2022-12-14T12:30:55.922Z,-0.19
2022-12-14T12:33:32.578Z,-0.11
2022-12-14T12:36:04.690Z,0.17
2022-12-14T12:38:51.600Z,0.26
2022-12-14T12:41:30.387Z,0.22
2022-12-14T12:44:03.521Z,0.13
2022-12-14T12:46:53.569Z,0.04
2022-12-14T12:49:27.377Z,-0.02
2022-12-14T12:52:00.706Z,-0.04
2022-12-14T12:54:36.309Z,-0.07
2022-12-14T12:57:07.978Z,-0.09
2022-12-14T12:59:41.631Z,-0.09
2022-12-14T13:02:23.080Z,-0.14
2022-12-14T13:04:53.892Z,-0.19
2022-12-14T13:07:31.839Z,-0.12
2022-12-14T13:10:06.059Z,-0.02
2022-12-14T13:12:39.970Z,-0.20
2022-12-14T13:15:19.181Z,-0.18
2022-12-14T13:17:53.036Z,-0.30
2022-12-14T13:20:25.441Z,-0.32
2022-12-14T13:22:55.188Z,-0.32
2022-12-14T13:25:28.360Z,-0.37
2022-12-14T13:28:22.170Z,-0.28
2022-12-14T13:31:03.008Z,-0.37
2022-12-14T13:34:08.129Z,-0.43
2022-12-14T13:37:11.096Z,-0.41
2022-12-14T13:40:19.465Z,-0.49
2022-12-14T13:42:59.093Z,-0.61
2022-12-14T13:45:31.311Z,-0.59
2022-12-14T13:48:00.521Z,-0.61
2022-12-14T13:50:36.684Z,-0.52
2022-12-14T13:53:14.497Z,-0.52
2022-12-14T13:55:49.252Z,-0.56
2022-12-14T13:58:21.072Z,-0.66
2022-12-14T14:00:59.846Z,-0.63
2022-12-14T14:03:53.084Z,-0.58
2022-12-14T14:06:38.175Z,-0.61
2022-12-14T14:09:59.749Z,-0.58
2022-12-14T14:12:46.459Z,-0.58
2022-12-14T14:15:29.425Z,-0.74
2022-12-14T14:18:08.582Z,-0.72
2022-12-14T14:20:42.590Z,-0.70
2022-12-14T14:23:33.196Z,-0.80
2022-12-14T14:26:19.204Z,-0.77
2022-12-14T14:29:05.562Z,-0.69
2022-12-14T14:31:52.841Z,-0.50
2022-12-14T14:34:25.923Z,-0.48
2022-12-14T14:36:55.035Z,-0.44
2022-12-14T14:39:56.205Z,-0.33
2022-12-14T14:42:28.495Z,-0.33
2022-12-14T14:44:59.269Z,-0.38
2022-12-14T14:47:32.768Z,-0.36
2022-12-14T14:50:04.203Z,-0.30
2022-12-14T14:53:01.375Z,-0.28
2022-12-14T14:55:54.120Z,-0.22
2022-12-14T14:58:28.662Z,-0.17
2022-12-14T15:01:03.634Z,-0.11
2022-12-14T15:03:46.446Z,-0.08
2022-12-14T15:06:17.094Z,-0.02
2022-12-14T15:08:50.126Z,0.05
2022-12-14T15:11:22.480Z,0.11
2022-12-14T15:13:55.129Z,0.17
2022-12-14T15:16:29.779Z,0.20
2022-12-14T15:19:21.922Z,0.24
2022-12-14T15:21:53.289Z,0.25
2022-12-14T15:24:23.253Z,0.30
2022-12-14T15:26:53.917Z,0.29
2022-12-14T15:29:27.876Z,0.34
2022-12-14T15:32:00.862Z,0.37
2022-12-14T15:34:29.614Z,0.38
2022-12-14T15:36:58.749Z,0.40
2022-12-14T15:39:40.268Z,0.41
2022-12-14T15:42:15.681Z,0.41
2022-12-14T15:44:51.560Z,0.44
2022-12-14T15:47:26.107Z,0.45
2022-12-14T15:49:59.698Z,0.44
2022-12-14T15:52:31.701Z,0.45
2022-12-14T15:55:01.173Z,0.47
2022-12-14T15:57:31.642Z,0.49
2022-12-14T16:00:00.630Z,0.50
2022-12-14T16:02:32.182Z,0.53
2022-12-14T16:05:03.533Z,0.56
2022-12-14T16:07:39.904Z,0.55
2022-12-14T16:10:20.320Z,0.53
2022-12-14T16:12:53.879Z,0.50
2022-12-14T16:15:24.979Z,0.51
2022-12-14T16:18:01.441Z,0.47
2022-12-14T16:20:34.940Z,0.44
2022-12-14T16:23:07.357Z,0.39
2022-12-14T16:25:36.811Z,0.37
2022-12-14T16:28:23.172Z,0.36
2022-12-14T16:30:57.288Z,0.28
2022-12-14T16:33:26.715Z,0.29
2022-12-14T16:36:07.351Z,0.35
2022-12-14T16:38:42.791Z,0.43
2022-12-14T16:41:11.293Z,0.47
2022-12-14T16:43:42.843Z,0.50
2022-12-14T16:46:17.496Z,0.55
2022-12-14T16:48:50.316Z,0.57
2022-12-14T16:51:58.190Z,0.54
2022-12-14T16:54:27.061Z,0.61
2022-12-14T16:57:01.982Z,0.62
2022-12-14T16:59:41.065Z,0.64
2022-12-14T17:02:28.192Z,0.61
2022-12-14T17:04:58.611Z,0.62
2022-12-14T17:07:30.189Z,0.63
2022-12-14T17:09:59.336Z,0.64
2022-12-14T17:12:27.956Z,0.64
2022-12-14T17:14:57.864Z,0.64
2022-12-14T17:17:32.871Z,0.64
2022-12-14T17:20:02.693Z,0.65
2022-12-14T17:22:34.101Z,0.67
2022-12-14T17:25:03.467Z,0.65
2022-12-14T17:27:32.109Z,0.66
2022-12-14T17:30:02.821Z,0.68
2022-12-14T17:32:31.814Z,0.70
2022-12-14T17:35:01.008Z,0.72
2022-12-14T17:37:34.289Z,0.71
2022-12-14T17:40:07.508Z,0.71
2022-12-14T17:42:38.631Z,0.71
2022-12-14T17:45:21.277Z,0.97
2022-12-14T17:47:50.735Z,1.35
2022-12-14T17:50:20.353Z,1.28
2022-12-14T17:52:50.721Z,1.13
2022-12-14T17:55:21.773Z,1.06
2022-12-14T17:57:50.716Z,1.17
2022-12-14T18:00:40.117Z,1.55
2022-12-14T18:03:10.261Z,1.47
2022-12-14T18:05:44.886Z,1.37
2022-12-14T18:08:15.068Z,1.27
2022-12-14T18:10:44.150Z,1.11
2022-12-14T18:13:13.427Z,1.04
2022-12-14T18:15:50.192Z,1.04
2022-12-14T18:18:19.695Z,1.03
2022-12-14T18:20:51.407Z,1.08
2022-12-14T18:23:21.006Z,1.07
2022-12-14T18:25:51.694Z,1.03
2022-12-14T18:28:21.681Z,1.00
2022-12-14T18:30:55.547Z,0.96
2022-12-14T18:33:25.357Z,0.94
2022-12-14T18:35:56.678Z,0.91
2022-12-14T18:38:25.513Z,0.91
2022-12-14T18:40:58.579Z,0.90
2022-12-14T18:43:29.417Z,0.90
2022-12-14T18:46:00.419Z,0.89
2022-12-14T18:48:28.868Z,0.92
2022-12-14T18:50:57.421Z,0.91
2022-12-14T18:53:27.222Z,0.88
2022-12-14T18:55:55.940Z,0.94
2022-12-14T18:58:27.332Z,0.94
2022-12-14T19:00:58.116Z,0.95
2022-12-14T19:03:31.641Z,0.95
2022-12-14T19:06:34.859Z,0.94
2022-12-14T19:08:54.630Z,0.85
2022-12-14T19:11:30.394Z,0.93
2022-12-14T19:13:59.312Z,0.89
2022-12-14T19:16:28.313Z,0.89
2022-12-14T19:18:58.661Z,0.87
2022-12-14T19:21:27.928Z,0.90
2022-12-14T19:23:57.330Z,0.90
2022-12-14T19:26:28.042Z,0.90
2022-12-14T19:28:56.797Z,0.84
2022-12-14T19:31:25.308Z,0.81
2022-12-14T19:33:54.697Z,0.83
2022-12-14T19:36:25.159Z,0.82
2022-12-14T19:38:53.992Z,0.82
2022-12-14T19:41:22.386Z,0.80
2022-12-14T19:43:51.013Z,0.78
2022-12-14T19:46:20.241Z,0.81
2022-12-14T19:48:48.659Z,0.76
2022-12-14T19:51:19.350Z,0.74
2022-12-14T19:53:49.328Z,0.76
2022-12-14T19:56:19.529Z,0.76
2022-12-14T19:58:48.698Z,0.76
2022-12-14T20:01:19.096Z,0.73
2022-12-14T20:03:49.475Z,0.77
2022-12-14T20:06:18.325Z,0.72
2022-12-14T20:08:49.391Z,0.68
2022-12-14T20:11:20.629Z,0.69
2022-12-14T20:13:54.901Z,0.72
2022-12-14T20:16:27.734Z,0.79
2022-12-14T20:18:56.237Z,0.93
2022-12-14T20:21:29.184Z,0.90
2022-12-14T20:23:58.478Z,0.87
2022-12-14T20:26:29.561Z,0.82
2022-12-14T20:29:00.941Z,0.75
2022-12-14T20:31:29.765Z,0.69
2022-12-14T20:34:00.101Z,0.70
2022-12-14T20:36:28.972Z,0.66
2022-12-14T20:38:58.359Z,0.63
2022-12-14T20:41:31.653Z,0.61
2022-12-14T20:44:02.045Z,0.51
2022-12-14T20:46:32.557Z,0.54
2022-12-14T20:49:04.382Z,0.57
2022-12-14T20:51:34.740Z,0.52
2022-12-14T20:54:04.055Z,0.49
2022-12-14T20:56:35.374Z,0.49
2022-12-14T20:59:04.363Z,0.46
2022-12-14T21:01:33.287Z,0.45
2022-12-14T21:04:02.425Z,0.50
2022-12-14T21:06:30.815Z,0.41
2022-12-14T21:09:05.504Z,0.44
2022-12-14T21:11:54.461Z,0.40
2022-12-14T21:14:25.953Z,0.36
2022-12-14T21:16:54.916Z,0.37
2022-12-14T21:19:24.603Z,0.36
2022-12-14T21:21:54.162Z,0.37
2022-12-14T21:25:01.138Z,0.32
2022-12-14T21:27:16.973Z,0.35
2022-12-14T21:29:46.487Z,0.37
2022-12-14T21:32:16.056Z,0.38
2022-12-14T21:34:46.092Z,0.34
2022-12-14T21:37:15.318Z,0.37
2022-12-14T21:39:51.869Z,0.35
2022-12-14T21:42:23.578Z,0.32
2022-12-14T21:44:53.452Z,0.31
2022-12-14T21:47:23.553Z,0.32
2022-12-14T21:49:52.647Z,0.24
2022-12-14T21:52:23.189Z,0.36
2022-12-14T21:54:52.189Z,0.36
2022-12-14T21:57:40.057Z,0.35
2022-12-14T22:00:12.648Z,0.28
2022-12-14T22:02:42.666Z,0.35
2022-12-14T22:05:12.044Z,0.31
2022-12-14T22:07:40.735Z,0.36
2022-12-14T22:10:09.827Z,0.30
2022-12-14T22:12:38.192Z,0.33
2022-12-14T22:15:08.523Z,0.35
2022-12-14T22:17:38.494Z,0.30
2022-12-14T22:20:09.053Z,0.28
2022-12-14T22:22:37.526Z,0.21
2022-12-14T22:25:07.403Z,0.15
2022-12-14T22:27:35.807Z,0.21
2022-12-14T22:30:05.665Z,0.23
2022-12-14T22:32:34.085Z,0.19
2022-12-14T22:35:04.897Z,0.22
2022-12-14T22:37:33.393Z,0.21
2022-12-14T22:40:02.555Z,0.22
2022-12-14T22:42:31.125Z,0.25
2022-12-14T22:45:00.316Z,0.21
2022-12-14T22:47:29.638Z,0.22
2022-12-14T22:49:58.704Z,0.17
2022-12-14T22:52:28.424Z,0.17
2022-12-14T22:54:57.219Z,0.12
2022-12-14T22:57:25.792Z,0.13
2022-12-14T22:59:58.722Z,0.16
2022-12-14T23:02:27.509Z,0.14
2022-12-14T23:04:57.007Z,0.14
2022-12-14T23:07:26.045Z,0.15
2022-12-14T23:10:13.710Z,0.12
2022-12-14T23:12:59.825Z,0.14
2022-12-14T23:15:45.881Z,0.15
2022-12-14T23:18:31.917Z,0.18
2022-12-14T23:21:18.154Z,0.16
2022-12-14T23:24:04.627Z,0.14
2022-12-14T23:26:52.722Z,0.13
2022-12-14T23:29:38.706Z,0.16
2022-12-14T23:32:25.052Z,0.17
2022-12-14T23:35:11.259Z,0.07
2022-12-14T23:37:57.707Z,0.10
2022-12-14T23:40:43.822Z,0.11
2022-12-14T23:43:34.656Z,0.15
2022-12-14T23:46:22.528Z,0.13
2022-12-14T23:49:13.732Z,0.12
2022-12-14T23:52:02.518Z,0.16
2022-12-14T23:54:49.325Z,0.15
2022-12-14T23:57:35.863Z,0.10
